sensor_id;sensor_type;location;lat;lon;timestamp;pressure;altitude;pressure_sealevel;temperature;humidity
5872;BME280;2962;51.312;7.378;2023-04-10T00:01:01;98020.25;;;6.64;100.00
5872;BME280;2962;51.312;7.378;2023-04-10T00:03:27;98001.69;;;6.54;100.00
5872;BME280;2962;51.312;7.378;2023-04-10T00:05:53;98019.66;;;6.58;100.00
5872;BME280;2962;51.312;7.378;2023-04-10T00:08:22;98009.31;;;6.52;100.00
5872;BME280;2962;51.312;7.378;2023-04-10T00:10:57;98011.25;;;6.51;100.00
5872;BME280;2962;51.312;7.378;2023-04-10T00:13:22;98008.69;;;6.55;100.00
5872;BME280;2962;51.312;7.378;2023-04-10T00:15:47;98001.84;;;6.49;100.00
5872;BME280;2962;51.312;7.378;2023-04-10T00:18:13;97999.28;;;6.52;100.00
5872;BME280;2962;51.312;7.378;2023-04-10T00:20:38;97996.63;;;6.44;100.00
5872;BME280;2962;51.312;7.378;2023-04-10T00:23:05;98003.63;;;6.45;100.00
5872;BME280;2962;51.312;7.378;2023-04-10T00:25:30;97986.19;;;6.33;100.00
5872;BME280;2962;51.312;7.378;2023-04-10T00:27:55;97994.78;;;6.35;100.00
5872;BME280;2962;51.312;7.378;2023-04-10T00:30:20;97989.03;;;6.37;100.00
5872;BME280;2962;51.312;7.378;2023-04-10T00:32:46;97989.38;;;6.35;100.00
5872;BME280;2962;51.312;7.378;2023-04-10T00:35:12;97979.97;;;6.33;100.00
5872;BME280;2962;51.312;7.378;2023-04-10T00:37:37;97984.41;;;6.38;100.00
5872;BME280;2962;51.312;7.378;2023-04-10T00:40:03;97987.09;;;6.38;100.00
5872;BME280;2962;51.312;7.378;2023-04-10T00:42:29;97982.81;;;6.36;100.00
5872;BME280;2962;51.312;7.378;2023-04-10T00:44:54;97975.84;;;6.35;100.00
5872;BME280;2962;51.312;7.378;2023-04-10T00:47:20;97973.78;;;6.32;100.00
5872;BME280;2962;51.312;7.378;2023-04-10T00:49:45;97972.78;;;6.37;100.00
5872;BME280;2962;51.312;7.378;2023-04-10T00:52:11;97973.31;;;6.30;100.00
5872;BME280;2962;51.312;7.378;2023-04-10T00:54:37;97961.69;;;6.30;100.00
5872;BME280;2962;51.312;7.378;2023-04-10T00:57:03;97961.38;;;6.31;100.00
5872;BME280;2962;51.312;7.378;2023-04-10T00:59:31;97954.56;;;6.25;100.00
5872;BME280;2962;51.312;7.378;2023-04-10T01:01:57;97951.25;;;6.20;100.00
5872;BME280;2962;51.312;7.378;2023-04-10T01:04:23;97967.16;;;6.21;100.00
5872;BME280;2962;51.312;7.378;2023-04-10T01:07:16;97962.22;;;6.23;100.00
5872;BME280;2962;51.312;7.378;2023-04-10T01:10:05;97950.50;;;6.10;100.00
5872;BME280;2962;51.312;7.378;2023-04-10T01:12:53;97956.03;;;6.14;100.00
5872;BME280;2962;51.312;7.378;2023-04-10T01:15:22;97956.03;;;6.14;100.00
5872;BME280;2962;51.312;7.378;2023-04-10T01:17:51;97950.97;;;6.13;100.00
5872;BME280;2962;51.312;7.378;2023-04-10T01:20:24;97948.72;;;6.15;100.00
5872;BME280;2962;51.312;7.378;2023-04-10T01:25:53;97953.44;;;6.26;100.00
5872;BME280;2962;51.312;7.378;2023-04-10T01:28:36;97945.00;;;6.28;100.00
5872;BME280;2962;51.312;7.378;2023-04-10T01:31:03;97948.97;;;6.30;100.00
5872;BME280;2962;51.312;7.378;2023-04-10T01:33:48;97944.28;;;6.10;100.00
5872;BME280;2962;51.312;7.378;2023-04-10T01:36:26;97961.75;;;6.21;100.00
5872;BME280;2962;51.312;7.378;2023-04-10T01:38:53;97940.75;;;6.18;100.00
5872;BME280;2962;51.312;7.378;2023-04-10T01:41:21;97931.69;;;6.14;100.00
5872;BME280;2962;51.312;7.378;2023-04-10T01:43:48;97942.50;;;6.14;100.00
5872;BME280;2962;51.312;7.378;2023-04-10T01:46:15;97934.25;;;6.10;100.00
5872;BME280;2962;51.312;7.378;2023-04-10T01:48:43;97924.06;;;6.16;100.00
5872;BME280;2962;51.312;7.378;2023-04-10T01:51:09;97923.22;;;6.24;100.00
5872;BME280;2962;51.312;7.378;2023-04-10T01:53:35;97913.97;;;6.25;100.00
5872;BME280;2962;51.312;7.378;2023-04-10T01:56:01;97912.66;;;6.31;100.00
5872;BME280;2962;51.312;7.378;2023-04-10T01:58:27;97900.72;;;6.32;100.00
5872;BME280;2962;51.312;7.378;2023-04-10T02:00:52;97901.78;;;6.40;100.00
5872;BME280;2962;51.312;7.378;2023-04-10T02:03:18;97903.22;;;6.38;100.00
5872;BME280;2962;51.312;7.378;2023-04-10T02:06:20;97914.03;;;6.38;100.00
5872;BME280;2962;51.312;7.378;2023-04-10T02:08:52;97908.50;;;6.34;100.00
5872;BME280;2962;51.312;7.378;2023-04-10T02:13:52;97906.97;;;6.24;100.00
5872;BME280;2962;51.312;7.378;2023-04-10T02:16:18;97892.19;;;6.22;100.00
5872;BME280;2962;51.312;7.378;2023-04-10T02:18:47;97910.13;;;6.26;100.00
5872;BME280;2962;51.312;7.378;2023-04-10T02:21:13;97902.88;;;6.18;100.00
5872;BME280;2962;51.312;7.378;2023-04-10T02:23:39;97902.69;;;6.23;100.00
5872;BME280;2962;51.312;7.378;2023-04-10T02:26:08;97889.94;;;6.24;100.00
5872;BME280;2962;51.312;7.378;2023-04-10T02:28:36;97885.34;;;6.24;100.00
5872;BME280;2962;51.312;7.378;2023-04-10T02:31:01;97884.81;;;6.31;100.00
5872;BME280;2962;51.312;7.378;2023-04-10T02:33:26;97874.88;;;6.14;100.00
5872;BME280;2962;51.312;7.378;2023-04-10T02:35:51;97864.47;;;6.25;100.00
5872;BME280;2962;51.312;7.378;2023-04-10T02:38:17;97887.19;;;6.32;100.00
5872;BME280;2962;51.312;7.378;2023-04-10T02:40:42;97884.03;;;6.30;100.00
5872;BME280;2962;51.312;7.378;2023-04-10T02:43:07;97873.59;;;6.20;100.00
5872;BME280;2962;51.312;7.378;2023-04-10T02:45:32;97872.53;;;6.33;100.00
5872;BME280;2962;51.312;7.378;2023-04-10T02:47:58;97884.41;;;6.41;100.00
5872;BME280;2962;51.312;7.378;2023-04-10T02:50:23;97895.22;;;6.41;100.00
5872;BME280;2962;51.312;7.378;2023-04-10T02:52:49;97879.41;;;6.31;100.00
5872;BME280;2962;51.312;7.378;2023-04-10T02:55:15;97878.84;;;6.38;100.00
5872;BME280;2962;51.312;7.378;2023-04-10T02:57:40;97892.06;;;6.39;100.00
5872;BME280;2962;51.312;7.378;2023-04-10T03:00:07;97870.50;;;6.30;100.00
5872;BME280;2962;51.312;7.378;2023-04-10T03:02:32;97862.47;;;6.34;100.00
5872;BME280;2962;51.312;7.378;2023-04-10T03:05:00;97882.47;;;6.42;100.00
5872;BME280;2962;51.312;7.378;2023-04-10T03:07:25;97883.81;;;6.35;100.00
5872;BME280;2962;51.312;7.378;2023-04-10T03:09:51;97876.69;;;6.31;100.00
5872;BME280;2962;51.312;7.378;2023-04-10T03:12:16;97869.63;;;6.39;100.00
5872;BME280;2962;51.312;7.378;2023-04-10T03:14:42;97874.25;;;6.38;100.00
5872;BME280;2962;51.312;7.378;2023-04-10T03:17:07;97873.78;;;6.36;100.00
5872;BME280;2962;51.312;7.378;2023-04-10T03:19:33;97860.63;;;6.26;100.00
5872;BME280;2962;51.312;7.378;2023-04-10T03:21:58;97858.53;;;6.31;100.00
5872;BME280;2962;51.312;7.378;2023-04-10T03:24:23;97857.88;;;6.34;100.00
5872;BME280;2962;51.312;7.378;2023-04-10T03:26:48;97867.66;;;6.27;100.00
5872;BME280;2962;51.312;7.378;2023-04-10T03:29:14;97851.81;;;6.17;100.00
5872;BME280;2962;51.312;7.378;2023-04-10T03:31:43;97842.25;;;6.19;100.00
5872;BME280;2962;51.312;7.378;2023-04-10T03:34:08;97852.53;;;6.26;100.00
5872;BME280;2962;51.312;7.378;2023-04-10T03:36:33;97842.97;;;6.28;100.00
5872;BME280;2962;51.312;7.378;2023-04-10T03:38:58;97831.22;;;6.24;100.00
5872;BME280;2962;51.312;7.378;2023-04-10T03:41:24;97838.41;;;6.20;100.00
5872;BME280;2962;51.312;7.378;2023-04-10T03:43:49;97843.34;;;6.18;100.00
5872;BME280;2962;51.312;7.378;2023-04-10T03:46:15;97846.06;;;6.18;100.00
5872;BME280;2962;51.312;7.378;2023-04-10T03:48:40;97834.56;;;6.21;100.00
5872;BME280;2962;51.312;7.378;2023-04-10T03:51:05;97818.84;;;6.15;100.00
5872;BME280;2962;51.312;7.378;2023-04-10T03:53:32;97823.03;;;6.12;100.00
5872;BME280;2962;51.312;7.378;2023-04-10T03:56:00;97820.84;;;6.05;100.00
5872;BME280;2962;51.312;7.378;2023-04-10T03:58:25;97827.09;;;6.18;100.00
5872;BME280;2962;51.312;7.378;2023-04-10T04:00:51;97813.31;;;6.11;100.00
5872;BME280;2962;51.312;7.378;2023-04-10T04:03:16;97800.00;;;6.06;100.00
5872;BME280;2962;51.312;7.378;2023-04-10T04:05:41;97815.06;;;6.16;100.00
5872;BME280;2962;51.312;7.378;2023-04-10T04:08:07;97822.50;;;6.19;100.00
5872;BME280;2962;51.312;7.378;2023-04-10T04:10:32;97830.28;;;6.20;100.00
5872;BME280;2962;51.312;7.378;2023-04-10T04:12:57;97823.81;;;6.13;100.00
5872;BME280;2962;51.312;7.378;2023-04-10T04:15:23;97820.00;;;6.14;100.00
5872;BME280;2962;51.312;7.378;2023-04-10T04:17:48;97825.91;;;6.07;100.00
5872;BME280;2962;51.312;7.378;2023-04-10T04:20:14;97805.63;;;6.01;100.00
5872;BME280;2962;51.312;7.378;2023-04-10T04:22:39;97813.22;;;6.07;100.00
5872;BME280;2962;51.312;7.378;2023-04-10T04:25:06;97817.34;;;6.05;100.00
5872;BME280;2962;51.312;7.378;2023-04-10T04:27:34;97801.13;;;6.05;100.00
5872;BME280;2962;51.312;7.378;2023-04-10T04:30:00;97812.25;;;6.03;100.00
5872;BME280;2962;51.312;7.378;2023-04-10T04:32:26;97801.91;;;6.05;100.00
5872;BME280;2962;51.312;7.378;2023-04-10T04:34:51;97810.50;;;6.07;100.00
5872;BME280;2962;51.312;7.378;2023-04-10T04:37:17;97805.19;;;6.11;100.00
5872;BME280;2962;51.312;7.378;2023-04-10T04:39:42;97800.91;;;6.10;100.00
5872;BME280;2962;51.312;7.378;2023-04-10T04:42:07;97768.09;;;5.91;100.00
5872;BME280;2962;51.312;7.378;2023-04-10T04:44:33;97799.13;;;6.14;100.00
5872;BME280;2962;51.312;7.378;2023-04-10T04:46:59;97779.69;;;6.21;100.00
5872;BME280;2962;51.312;7.378;2023-04-10T04:49:24;97786.22;;;6.20;100.00
5872;BME280;2962;51.312;7.378;2023-04-10T04:51:50;97758.81;;;6.21;100.00
5872;BME280;2962;51.312;7.378;2023-04-10T04:54:15;97773.91;;;6.22;100.00
5872;BME280;2962;51.312;7.378;2023-04-10T04:56:40;97762.91;;;6.27;100.00
5872;BME280;2962;51.312;7.378;2023-04-10T04:59:06;97771.22;;;6.22;100.00
5872;BME280;2962;51.312;7.378;2023-04-10T05:01:31;97760.59;;;6.17;100.00
5872;BME280;2962;51.312;7.378;2023-04-10T05:03:56;97775.97;;;6.25;100.00
5872;BME280;2962;51.312;7.378;2023-04-10T05:06:22;97765.63;;;6.27;100.00
5872;BME280;2962;51.312;7.378;2023-04-10T05:08:47;97776.56;;;6.31;100.00
5872;BME280;2962;51.312;7.378;2023-04-10T05:11:12;97757.38;;;6.24;100.00
5872;BME280;2962;51.312;7.378;2023-04-10T05:13:37;97768.63;;;6.26;100.00
5872;BME280;2962;51.312;7.378;2023-04-10T05:16:03;97777.38;;;6.31;100.00
5872;BME280;2962;51.312;7.378;2023-04-10T05:18:28;97774.56;;;6.40;100.00
5872;BME280;2962;51.312;7.378;2023-04-10T05:20:53;97770.38;;;6.30;100.00
5872;BME280;2962;51.312;7.378;2023-04-10T05:23:19;97756.63;;;6.35;100.00
5872;BME280;2962;51.312;7.378;2023-04-10T05:25:44;97763.88;;;6.44;100.00
5872;BME280;2962;51.312;7.378;2023-04-10T05:28:10;97774.91;;;6.39;100.00
5872;BME280;2962;51.312;7.378;2023-04-10T05:30:35;97784.41;;;6.45;100.00
5872;BME280;2962;51.312;7.378;2023-04-10T05:33:00;97754.13;;;6.30;100.00
5872;BME280;2962;51.312;7.378;2023-04-10T05:35:26;97765.88;;;6.34;100.00
5872;BME280;2962;51.312;7.378;2023-04-10T05:37:51;97782.16;;;6.47;100.00
5872;BME280;2962;51.312;7.378;2023-04-10T05:40:16;97773.69;;;6.48;100.00
5872;BME280;2962;51.312;7.378;2023-04-10T05:42:42;97784.88;;;6.47;100.00
5872;BME280;2962;51.312;7.378;2023-04-10T05:45:07;97781.63;;;6.53;100.00
5872;BME280;2962;51.312;7.378;2023-04-10T05:47:32;97779.72;;;6.54;100.00
5872;BME280;2962;51.312;7.378;2023-04-10T05:49:58;97789.00;;;6.65;100.00
5872;BME280;2962;51.312;7.378;2023-04-10T05:52:23;97792.63;;;6.69;100.00
5872;BME280;2962;51.312;7.378;2023-04-10T05:54:48;97791.81;;;6.69;100.00
5872;BME280;2962;51.312;7.378;2023-04-10T05:57:15;97807.81;;;6.62;100.00
5872;BME280;2962;51.312;7.378;2023-04-10T05:59:41;97786.06;;;6.70;100.00
5872;BME280;2962;51.312;7.378;2023-04-10T06:02:06;97785.59;;;6.68;100.00
5872;BME280;2962;51.312;7.378;2023-04-10T06:04:31;97785.84;;;6.75;100.00
5872;BME280;2962;51.312;7.378;2023-04-10T06:06:56;97773.44;;;6.74;100.00
5872;BME280;2962;51.312;7.378;2023-04-10T06:09:22;97757.06;;;6.71;100.00
5872;BME280;2962;51.312;7.378;2023-04-10T06:11:47;97780.00;;;6.85;100.00
5872;BME280;2962;51.312;7.378;2023-04-10T06:14:12;97780.56;;;6.91;100.00
5872;BME280;2962;51.312;7.378;2023-04-10T06:16:38;97766.06;;;6.96;100.00
5872;BME280;2962;51.312;7.378;2023-04-10T06:19:03;97767.28;;;6.98;100.00
5872;BME280;2962;51.312;7.378;2023-04-10T06:21:28;97758.13;;;7.03;100.00
5872;BME280;2962;51.312;7.378;2023-04-10T06:23:56;97752.53;;;7.20;100.00
5872;BME280;2962;51.312;7.378;2023-04-10T06:26:24;97764.03;;;7.29;100.00
5872;BME280;2962;51.312;7.378;2023-04-10T06:28:50;97772.28;;;7.33;100.00
5872;BME280;2962;51.312;7.378;2023-04-10T06:31:18;97739.44;;;7.34;100.00
5872;BME280;2962;51.312;7.378;2023-04-10T06:33:44;97731.28;;;7.47;100.00
5872;BME280;2962;51.312;7.378;2023-04-10T06:36:09;97774.41;;;7.52;100.00
5872;BME280;2962;51.312;7.378;2023-04-10T06:38:35;97762.56;;;7.44;100.00
5872;BME280;2962;51.312;7.378;2023-04-10T06:41:03;97757.69;;;7.62;100.00
5872;BME280;2962;51.312;7.378;2023-04-10T06:43:28;97738.94;;;7.57;100.00
5872;BME280;2962;51.312;7.378;2023-04-10T06:45:55;97736.56;;;7.55;100.00
5872;BME280;2962;51.312;7.378;2023-04-10T06:48:21;97763.88;;;7.75;100.00
5872;BME280;2962;51.312;7.378;2023-04-10T06:50:46;97762.97;;;7.83;100.00
5872;BME280;2962;51.312;7.378;2023-04-10T06:53:11;97771.47;;;7.81;100.00
5872;BME280;2962;51.312;7.378;2023-04-10T06:55:36;97764.88;;;7.82;100.00
5872;BME280;2962;51.312;7.378;2023-04-10T06:58:02;97738.13;;;7.81;100.00
5872;BME280;2962;51.312;7.378;2023-04-10T07:00:27;97757.09;;;7.81;100.00
5872;BME280;2962;51.312;7.378;2023-04-10T07:02:53;97741.59;;;7.94;100.00
5872;BME280;2962;51.312;7.378;2023-04-10T07:05:18;97772.78;;;8.00;100.00
5872;BME280;2962;51.312;7.378;2023-04-10T07:07:43;97766.06;;;8.10;100.00
5872;BME280;2962;51.312;7.378;2023-04-10T07:10:09;97748.81;;;8.30;100.00
5872;BME280;2962;51.312;7.378;2023-04-10T07:12:35;97760.09;;;8.44;100.00
5872;BME280;2962;51.312;7.378;2023-04-10T07:15:00;97756.59;;;8.44;100.00
5872;BME280;2962;51.312;7.378;2023-04-10T07:17:25;97759.94;;;8.53;100.00
5872;BME280;2962;51.312;7.378;2023-04-10T07:19:50;97776.28;;;8.69;100.00
5872;BME280;2962;51.312;7.378;2023-04-10T07:22:16;97760.88;;;8.73;100.00
5872;BME280;2962;51.312;7.378;2023-04-10T07:24:41;97757.63;;;8.99;100.00
5872;BME280;2962;51.312;7.378;2023-04-10T07:27:06;97751.28;;;9.07;100.00
5872;BME280;2962;51.312;7.378;2023-04-10T07:29:32;97746.63;;;9.08;100.00
5872;BME280;2962;51.312;7.378;2023-04-10T07:31:57;97746.78;;;9.31;100.00
5872;BME280;2962;51.312;7.378;2023-04-10T07:34:22;97728.63;;;9.19;100.00
5872;BME280;2962;51.312;7.378;2023-04-10T07:36:48;97729.81;;;9.37;100.00
5872;BME280;2962;51.312;7.378;2023-04-10T07:39:14;97745.16;;;9.45;100.00
5872;BME280;2962;51.312;7.378;2023-04-10T07:41:39;97714.56;;;9.33;100.00
5872;BME280;2962;51.312;7.378;2023-04-10T07:44:04;97727.88;;;9.38;100.00
5872;BME280;2962;51.312;7.378;2023-04-10T07:46:29;97717.00;;;9.38;100.00
5872;BME280;2962;51.312;7.378;2023-04-10T07:48:55;97710.13;;;9.60;100.00
5872;BME280;2962;51.312;7.378;2023-04-10T07:51:20;97723.94;;;9.51;100.00
5872;BME280;2962;51.312;7.378;2023-04-10T07:53:46;97720.69;;;9.61;100.00
5872;BME280;2962;51.312;7.378;2023-04-10T07:56:15;97747.06;;;9.76;100.00
5872;BME280;2962;51.312;7.378;2023-04-10T07:58:41;97724.13;;;9.77;100.00
5872;BME280;2962;51.312;7.378;2023-04-10T08:01:07;97711.75;;;9.80;100.00
5872;BME280;2962;51.312;7.378;2023-04-10T08:03:39;97683.88;;;9.87;100.00
5872;BME280;2962;51.312;7.378;2023-04-10T08:06:06;97702.88;;;9.83;100.00
5872;BME280;2962;51.312;7.378;2023-04-10T08:08:36;97675.78;;;9.71;100.00
5872;BME280;2962;51.312;7.378;2023-04-10T08:11:05;97709.75;;;9.77;100.00
5872;BME280;2962;51.312;7.378;2023-04-10T08:13:31;97665.56;;;9.84;100.00
5872;BME280;2962;51.312;7.378;2023-04-10T08:15:57;97700.53;;;10.01;100.00
5872;BME280;2962;51.312;7.378;2023-04-10T08:18:22;97686.63;;;10.06;100.00
5872;BME280;2962;51.312;7.378;2023-04-10T08:20:47;97685.75;;;10.02;100.00
5872;BME280;2962;51.312;7.378;2023-04-10T08:23:13;97678.03;;;10.04;100.00
5872;BME280;2962;51.312;7.378;2023-04-10T08:25:38;97665.13;;;10.20;100.00
5872;BME280;2962;51.312;7.378;2023-04-10T08:28:04;97659.84;;;10.27;100.00
5872;BME280;2962;51.312;7.378;2023-04-10T08:30:29;97661.25;;;10.41;100.00
5872;BME280;2962;51.312;7.378;2023-04-10T08:32:54;97675.63;;;10.41;100.00
5872;BME280;2962;51.312;7.378;2023-04-10T08:35:20;97664.59;;;10.54;100.00
5872;BME280;2962;51.312;7.378;2023-04-10T08:37:45;97684.16;;;10.59;100.00
5872;BME280;2962;51.312;7.378;2023-04-10T08:40:11;97674.53;;;10.65;100.00
5872;BME280;2962;51.312;7.378;2023-04-10T08:42:36;97668.28;;;10.88;100.00
5872;BME280;2962;51.312;7.378;2023-04-10T08:45:02;97664.41;;;10.89;100.00
5872;BME280;2962;51.312;7.378;2023-04-10T08:47:28;97671.00;;;11.11;100.00
5872;BME280;2962;51.312;7.378;2023-04-10T08:50:00;97627.56;;;10.98;100.00
5872;BME280;2962;51.312;7.378;2023-04-10T08:52:33;97642.19;;;11.13;99.24
5872;BME280;2962;51.312;7.378;2023-04-10T08:55:01;97669.06;;;11.11;98.90
5872;BME280;2962;51.312;7.378;2023-04-10T08:57:30;97651.84;;;11.34;99.95
5872;BME280;2962;51.312;7.378;2023-04-10T08:59:57;97654.25;;;11.65;100.00
5872;BME280;2962;51.312;7.378;2023-04-10T09:02:22;97642.53;;;11.95;99.73
5872;BME280;2962;51.312;7.378;2023-04-10T09:04:49;97645.47;;;11.83;93.85
5872;BME280;2962;51.312;7.378;2023-04-10T09:07:15;97631.03;;;12.12;94.96
5872;BME280;2962;51.312;7.378;2023-04-10T09:09:41;97636.34;;;12.35;94.47
5872;BME280;2962;51.312;7.378;2023-04-10T09:12:07;97640.00;;;12.50;89.58
5872;BME280;2962;51.312;7.378;2023-04-10T09:14:33;97600.38;;;12.30;83.36
5872;BME280;2962;51.312;7.378;2023-04-10T09:17:15;97593.53;;;12.09;85.32
5872;BME280;2962;51.312;7.378;2023-04-10T09:19:43;97605.91;;;11.96;84.91
5872;BME280;2962;51.312;7.378;2023-04-10T09:22:08;97633.38;;;11.80;83.41
5872;BME280;2962;51.312;7.378;2023-04-10T09:24:35;97611.75;;;11.68;85.62
5872;BME280;2962;51.312;7.378;2023-04-10T09:27:02;97607.34;;;11.86;86.80
5872;BME280;2962;51.312;7.378;2023-04-10T09:29:46;97621.84;;;11.94;87.81
5872;BME280;2962;51.312;7.378;2023-04-10T09:35:03;97612.56;;;12.39;86.25
5872;BME280;2962;51.312;7.378;2023-04-10T09:37:40;97603.63;;;12.42;84.27
5872;BME280;2962;51.312;7.378;2023-04-10T09:40:19;97579.97;;;12.64;84.04
5872;BME280;2962;51.312;7.378;2023-04-10T09:42:44;97576.69;;;12.44;78.41
5872;BME280;2962;51.312;7.378;2023-04-10T09:45:10;97599.56;;;12.26;80.80
5872;BME280;2962;51.312;7.378;2023-04-10T09:47:35;97599.19;;;12.27;80.98
5872;BME280;2962;51.312;7.378;2023-04-10T09:50:02;97610.75;;;12.54;81.27
5872;BME280;2962;51.312;7.378;2023-04-10T09:52:28;97595.94;;;12.55;80.45
5872;BME280;2962;51.312;7.378;2023-04-10T09:55:02;97617.81;;;12.59;78.94
5872;BME280;2962;51.312;7.378;2023-04-10T09:57:29;97620.69;;;12.73;81.50
5872;BME280;2962;51.312;7.378;2023-04-10T10:00:00;97633.75;;;12.98;81.25
5872;BME280;2962;51.312;7.378;2023-04-10T10:02:29;97608.50;;;13.15;81.93
5872;BME280;2962;51.312;7.378;2023-04-10T10:04:57;97601.19;;;13.26;79.88
5872;BME280;2962;51.312;7.378;2023-04-10T10:07:25;97607.22;;;13.57;82.32
5872;BME280;2962;51.312;7.378;2023-04-10T10:09:51;97594.59;;;13.38;76.40
5872;BME280;2962;51.312;7.378;2023-04-10T10:12:26;97599.75;;;13.50;75.60
5872;BME280;2962;51.312;7.378;2023-04-10T10:15:00;97581.69;;;13.35;75.01
5872;BME280;2962;51.312;7.378;2023-04-10T10:17:45;97592.41;;;13.76;71.80
5872;BME280;2962;51.312;7.378;2023-04-10T10:20:16;97585.25;;;13.46;70.32
5872;BME280;2962;51.312;7.378;2023-04-10T10:22:43;97584.44;;;13.42;70.85
5872;BME280;2962;51.312;7.378;2023-04-10T10:25:09;97585.94;;;13.29;71.60
5872;BME280;2962;51.312;7.378;2023-04-10T10:27:39;97540.44;;;13.06;65.86
5872;BME280;2962;51.312;7.378;2023-04-10T10:30:06;97572.03;;;12.97;69.95
5872;BME280;2962;51.312;7.378;2023-04-10T10:32:34;97578.66;;;12.92;71.16
5872;BME280;2962;51.312;7.378;2023-04-10T10:35:01;97564.41;;;13.24;73.21
5872;BME280;2962;51.312;7.378;2023-04-10T10:37:28;97557.84;;;13.39;70.81
5872;BME280;2962;51.312;7.378;2023-04-10T10:42:32;97536.03;;;12.84;71.74
5872;BME280;2962;51.312;7.378;2023-04-10T10:45:12;97543.38;;;12.80;72.36
5872;BME280;2962;51.312;7.378;2023-04-10T10:47:53;97527.44;;;12.89;72.23
5872;BME280;2962;51.312;7.378;2023-04-10T10:50:19;97549.00;;;13.01;69.21
5872;BME280;2962;51.312;7.378;2023-04-10T10:52:49;97519.59;;;13.57;69.04
5872;BME280;2962;51.312;7.378;2023-04-10T11:00:15;97498.16;;;13.95;65.28
5872;BME280;2962;51.312;7.378;2023-04-10T11:02:40;97511.50;;;14.10;66.15
5872;BME280;2962;51.312;7.378;2023-04-10T11:05:06;97536.50;;;13.95;65.44
5872;BME280;2962;51.312;7.378;2023-04-10T11:10:58;97491.03;;;13.51;68.82
5872;BME280;2962;51.312;7.378;2023-04-10T11:13:23;97485.19;;;13.59;66.31
5872;BME280;2962;51.312;7.378;2023-04-10T11:15:50;97475.47;;;13.87;68.45
5872;BME280;2962;51.312;7.378;2023-04-10T11:18:16;97504.44;;;14.06;67.16
5872;BME280;2962;51.312;7.378;2023-04-10T11:21:07;97495.09;;;14.57;65.76
5872;BME280;2962;51.312;7.378;2023-04-10T11:23:33;97466.50;;;14.54;65.94
5872;BME280;2962;51.312;7.378;2023-04-10T11:26:00;97466.09;;;14.41;63.42
5872;BME280;2962;51.312;7.378;2023-04-10T11:31:16;97461.41;;;14.63;64.34
5872;BME280;2962;51.312;7.378;2023-04-10T11:33:44;97458.25;;;14.29;62.23
5872;BME280;2962;51.312;7.378;2023-04-10T11:36:13;97443.41;;;14.05;64.31
5872;BME280;2962;51.312;7.378;2023-04-10T11:38:38;97460.63;;;14.31;64.82
5872;BME280;2962;51.312;7.378;2023-04-10T11:41:04;97432.06;;;14.50;65.06
5872;BME280;2962;51.312;7.378;2023-04-10T11:43:31;97450.44;;;14.24;62.93
5872;BME280;2962;51.312;7.378;2023-04-10T11:46:02;97432.84;;;14.07;63.04
5872;BME280;2962;51.312;7.378;2023-04-10T11:48:28;97421.47;;;14.02;63.79
5872;BME280;2962;51.312;7.378;2023-04-10T11:50:54;97432.81;;;14.29;63.22
5872;BME280;2962;51.312;7.378;2023-04-10T11:53:20;97403.78;;;14.74;63.14
5872;BME280;2962;51.312;7.378;2023-04-10T11:55:46;97425.66;;;14.99;63.22
5872;BME280;2962;51.312;7.378;2023-04-10T11:58:40;97425.47;;;15.42;61.73
5872;BME280;2962;51.312;7.378;2023-04-10T12:01:06;97444.91;;;15.76;61.46
5872;BME280;2962;51.312;7.378;2023-04-10T12:03:36;97398.28;;;15.66;57.47
5872;BME280;2962;51.312;7.378;2023-04-10T12:06:06;97415.53;;;15.66;57.55
5872;BME280;2962;51.312;7.378;2023-04-10T12:08:37;97408.25;;;15.34;57.57
5872;BME280;2962;51.312;7.378;2023-04-10T12:11:03;97373.63;;;14.71;56.23
5872;BME280;2962;51.312;7.378;2023-04-10T12:13:31;97368.91;;;14.75;57.62
5872;BME280;2962;51.312;7.378;2023-04-10T12:15:59;97387.28;;;14.88;58.95
5872;BME280;2962;51.312;7.378;2023-04-10T12:18:27;97384.09;;;15.04;58.15
5872;BME280;2962;51.312;7.378;2023-04-10T12:20:53;97384.94;;;14.87;54.93
5872;BME280;2962;51.312;7.378;2023-04-10T12:23:25;97396.19;;;15.10;55.43
5872;BME280;2962;51.312;7.378;2023-04-10T12:25:51;97374.69;;;14.98;53.77
5872;BME280;2962;51.312;7.378;2023-04-10T12:28:19;97379.25;;;15.30;55.95
5872;BME280;2962;51.312;7.378;2023-04-10T12:30:49;97364.25;;;15.45;55.48
5872;BME280;2962;51.312;7.378;2023-04-10T12:33:24;97368.91;;;15.52;54.34
5872;BME280;2962;51.312;7.378;2023-04-10T12:35:50;97351.44;;;15.83;52.57
5872;BME280;2962;51.312;7.378;2023-04-10T12:38:34;97364.56;;;16.06;52.05
5872;BME280;2962;51.312;7.378;2023-04-10T12:41:00;97353.09;;;15.74;50.63
5872;BME280;2962;51.312;7.378;2023-04-10T12:43:30;97336.28;;;15.65;49.80
5872;BME280;2962;51.312;7.378;2023-04-10T12:45:56;97337.66;;;15.87;49.76
5872;BME280;2962;51.312;7.378;2023-04-10T12:48:22;97340.25;;;16.05;48.15
5872;BME280;2962;51.312;7.378;2023-04-10T12:50:48;97335.50;;;16.09;48.04
5872;BME280;2962;51.312;7.378;2023-04-10T12:53:13;97326.66;;;15.91;47.14
5872;BME280;2962;51.312;7.378;2023-04-10T12:55:39;97338.19;;;15.71;47.85
5872;BME280;2962;51.312;7.378;2023-04-10T12:58:17;97326.22;;;15.40;47.95
5872;BME280;2962;51.312;7.378;2023-04-10T13:00:46;97324.25;;;15.41;48.37
5872;BME280;2962;51.312;7.378;2023-04-10T13:03:12;97331.75;;;15.36;47.98
5872;BME280;2962;51.312;7.378;2023-04-10T13:05:38;97323.28;;;15.09;46.44
5872;BME280;2962;51.312;7.378;2023-04-10T13:08:03;97306.44;;;15.14;48.36
5872;BME280;2962;51.312;7.378;2023-04-10T13:10:28;97314.56;;;15.25;45.60
5872;BME280;2962;51.312;7.378;2023-04-10T13:12:56;97310.09;;;15.53;43.84
5872;BME280;2962;51.312;7.378;2023-04-10T13:15:21;97270.78;;;15.59;43.86
5872;BME280;2962;51.312;7.378;2023-04-10T13:17:46;97308.13;;;15.98;43.35
5872;BME280;2962;51.312;7.378;2023-04-10T13:20:12;97302.50;;;16.13;42.01
5872;BME280;2962;51.312;7.378;2023-04-10T13:22:37;97282.84;;;15.76;42.32
5872;BME280;2962;51.312;7.378;2023-04-10T13:25:03;97306.69;;;15.31;41.99
5872;BME280;2962;51.312;7.378;2023-04-10T13:27:29;97265.56;;;15.27;43.24
5872;BME280;2962;51.312;7.378;2023-04-10T13:29:54;97273.09;;;15.12;42.85
5872;BME280;2962;51.312;7.378;2023-04-10T13:32:19;97323.44;;;14.81;43.11
5872;BME280;2962;51.312;7.378;2023-04-10T13:34:45;97273.03;;;14.53;43.56
5872;BME280;2962;51.312;7.378;2023-04-10T13:37:10;97284.00;;;14.57;44.21
5872;BME280;2962;51.312;7.378;2023-04-10T13:39:39;97295.63;;;14.82;44.50
5872;BME280;2962;51.312;7.378;2023-04-10T13:42:04;97301.44;;;14.95;43.94
5872;BME280;2962;51.312;7.378;2023-04-10T13:44:29;97263.91;;;14.78;44.00